Terminal Aerodrome Forecast
Issued by NWS

Home | Current Version | Previous Version | Text Only | Print | Product List | Glossary On
Versions: 1 2 3 4 5 6 7 8 9 10 11 12 13 14 15 16 17 18 19
000
FTAK31 PAJN 070100 AAA
TAFAYA
TAF AMD
PAYA 070143Z 0702/0724 VRB04KT P6SM VCSH SCT015 BKN035 OVC040
      TEMPO 0702/0705 3SM SHRA BR BKN018
     FM071000 20003KT 5SM -SHRA SCT015 OVC025
     FM072100 14007KT 4SM -RA BR SCT006 BKN015 OVC025
      AMD LTD TO CLD VIS AND WIND 0701/0710=

USA.gov is the U.S. government's official web portal to all federal, state and local government web resources and services.